Pagrindinis puslapis
METAR-TAF:

METAR-TAF

Oro uostai :

Hof, Vokietija

platuma: 50-19N, ilguma: 011-53E, Aukštis: 567 m

Dabartinis oras

Ataskaita buvo paskelbta 25 minutes, ne 09:50 UTC
Vėjas 9 kt iš Šiaurės, svyruoja nuo Šiaurės Vakarų ir Rytų/Šiaurės Rytų
Temperatūra 10°C
Drėgmė 66%
Slėgis 1022 hPa
Matomumas 10 km arba daugiau
Išsisklaidę debesys ne aukštis 2600 ft

METAR: EDQM 310950Z 36009KT 310V060 9999 SCT026 10/04 Q1022

Laikas: 12:15 (10:15 UTC)

Prognozė

Ataskaita buvo paskelbta 2 valandos ir 15 minutes, ne 08:00 UTC
Prognozė galioja nuo 31 metu 09 UTC su 31 metu 18 UTC
Vėjas 8 kt iš Šiaurės/Šiaurės Rytų
Matomumas 10 km arba daugiau
Išsisklaidę debesys ne aukštis 2000 ft

TAF: EDQM 310800Z 3109/3118 02008KT 9999 SCT020

Orai ataskaitas ir orų prognozės (METAR, TAF).

turimą stotys yra geltonos ir raudonos taškus žemėlapyje.

Perkelti pele per norėdami pamatyti stoties vardą.

Tada spustelėkite, norėdami matyti oro stebėjimo ir prognozės.

Norėdami pakeisti žemėlapį: spustelėkite ant žalios mygtukų su juodo kryžiaus žemyn,; žalią mygtuką su brūkšneliu, jei norite nutolinti; arba žalių rodyklių gretimoms žemėlapius.


METAR-TAF: